createdAt,value
2023-01-18T00:03:36.427Z,97080.72
2023-01-18T00:08:39.590Z,97078.94
2023-01-18T00:13:41.593Z,97090.44
2023-01-18T00:18:44.321Z,97089.13
2023-01-18T00:23:46.025Z,97086.09
2023-01-18T00:28:47.661Z,97090.72
2023-01-18T00:33:50.051Z,97077.97
2023-01-18T00:38:52.467Z,97084.13
2023-01-18T00:43:54.416Z,97080.56
2023-01-18T00:48:57.364Z,97088.84
2023-01-18T00:53:58.951Z,97084.75
2023-01-18T00:59:00.594Z,97077.78
2023-01-18T01:04:20.620Z,97083.09
2023-01-18T01:09:28.976Z,97074.00
2023-01-18T01:14:50.302Z,97078.91
2023-01-18T01:20:10.549Z,97083.66
2023-01-18T01:25:30.855Z,97093.50
2023-01-18T01:30:32.476Z,97078.28
2023-01-18T01:35:34.105Z,97080.06
2023-01-18T01:40:35.764Z,97077.06
2023-01-18T01:45:37.563Z,97075.50
2023-01-18T01:50:40.027Z,97064.41
2023-01-18T01:55:42.537Z,97061.22
2023-01-18T02:00:44.637Z,97067.00
2023-01-18T02:05:50.801Z,97054.31
2023-01-18T02:10:52.821Z,97052.91
2023-01-18T02:16:13.447Z,97063.31
2023-01-18T02:21:46.915Z,97064.16
2023-01-18T02:27:17.637Z,97052.44
2023-01-18T02:32:38.061Z,97060.41
2023-01-18T02:38:02.003Z,97062.72
2023-01-18T02:43:26.479Z,97059.59
2023-01-18T02:48:34.925Z,97065.31
2023-01-18T02:53:44.763Z,97063.88
2023-01-18T02:58:51.300Z,97061.78
2023-01-18T03:04:02.079Z,97070.38
2023-01-18T03:09:03.903Z,97059.59
2023-01-18T03:14:20.650Z,97077.22
2023-01-18T03:19:42.896Z,97073.50
2023-01-18T03:24:46.033Z,97073.56
2023-01-18T03:30:06.185Z,97062.13
2023-01-18T03:35:14.819Z,97079.06
2023-01-18T03:40:23.721Z,97076.16
2023-01-18T03:45:35.011Z,97068.84
2023-01-18T03:50:49.679Z,97071.38
2023-01-18T03:55:56.844Z,97066.44
2023-01-18T04:00:58.807Z,97066.81
2023-01-18T04:06:02.543Z,97065.16
2023-01-18T04:11:04.233Z,97057.03
2023-01-18T04:16:06.087Z,97059.69
2023-01-18T04:21:07.729Z,97061.56
2023-01-18T04:26:09.462Z,97063.97
2023-01-18T04:31:11.132Z,97067.66
2023-01-18T04:36:12.801Z,97069.09
2023-01-18T04:41:14.459Z,97052.41
2023-01-18T04:46:16.111Z,97072.84
2023-01-18T04:51:18.795Z,97082.59
2023-01-18T04:56:20.415Z,97088.81
2023-01-18T05:01:22.721Z,97083.66
2023-01-18T05:06:24.662Z,97096.53
2023-01-18T05:11:27.154Z,97100.22
2023-01-18T05:16:28.876Z,97090.47
2023-01-18T05:21:30.547Z,97106.19
2023-01-18T05:26:32.174Z,97107.59
2023-01-18T05:31:33.921Z,97119.63
2023-01-18T05:36:35.679Z,97127.78
2023-01-18T05:41:37.303Z,97126.03
2023-01-18T05:46:38.896Z,97132.84
2023-01-18T05:51:40.516Z,97137.41
2023-01-18T05:56:42.344Z,97128.16
2023-01-18T06:01:43.985Z,97135.59
2023-01-18T06:06:45.601Z,97124.56
2023-01-18T06:11:47.227Z,97131.63
2023-01-18T06:16:48.819Z,97120.78
2023-01-18T06:21:50.422Z,97126.06
2023-01-18T06:26:52.027Z,97125.41
2023-01-18T06:31:53.869Z,97128.66
2023-01-18T06:36:55.543Z,97131.94
2023-01-18T06:41:57.430Z,97142.88
2023-01-18T06:46:59.301Z,97135.47
2023-01-18T06:52:00.946Z,97146.50
2023-01-18T06:57:02.611Z,97148.94
2023-01-18T07:02:05.075Z,97146.16
2023-01-18T07:07:08.012Z,97150.75
2023-01-18T07:12:09.680Z,97155.03
2023-01-18T07:17:11.336Z,97154.63
2023-01-18T07:22:13.427Z,97167.28
2023-01-18T07:27:15.111Z,97165.22
2023-01-18T07:32:16.779Z,97176.16
2023-01-18T07:37:18.367Z,97177.59
2023-01-18T07:42:20.002Z,97193.06
2023-01-18T07:47:21.729Z,97195.06
2023-01-18T07:52:23.360Z,97199.22
2023-01-18T07:57:25.868Z,97204.25
2023-01-18T08:02:27.528Z,97209.75
2023-01-18T08:07:32.549Z,97208.44
2023-01-18T08:12:34.182Z,97215.59
2023-01-18T08:17:35.806Z,97219.06
2023-01-18T08:22:37.421Z,97216.44
2023-01-18T08:27:39.048Z,97226.06
2023-01-18T08:32:40.993Z,97227.00
2023-01-18T08:37:42.589Z,97231.06
2023-01-18T08:42:44.469Z,97240.66
2023-01-18T08:47:46.537Z,97249.94
2023-01-18T08:52:48.143Z,97260.47
2023-01-18T08:57:50.267Z,97263.94
2023-01-18T09:02:52.173Z,97275.91
2023-01-18T09:07:54.926Z,97275.22
2023-01-18T09:12:57.111Z,97281.66
2023-01-18T09:17:59.844Z,97293.31
2023-01-18T09:23:10.250Z,97303.91
2023-01-18T09:28:13.120Z,97305.75
2023-01-18T09:33:14.924Z,97302.88
2023-01-18T09:38:16.506Z,97303.84
2023-01-18T09:43:27.563Z,97296.44
2023-01-18T09:48:31.376Z,97298.66
2023-01-18T09:53:38.877Z,97313.97
2023-01-18T09:58:46.920Z,97309.63
2023-01-18T10:04:19.244Z,97313.69
2023-01-18T10:09:25.849Z,97311.22
2023-01-18T10:14:53.154Z,97317.63
2023-01-18T10:19:54.759Z,97320.19
2023-01-18T10:25:05.488Z,97324.75
2023-01-18T10:30:25.843Z,97323.66
2023-01-18T10:35:36.550Z,97324.75
2023-01-18T10:40:40.726Z,97321.53
2023-01-18T10:45:44.220Z,97326.78
2023-01-18T10:50:53.553Z,97333.69
2023-01-18T10:56:18.371Z,97352.75
2023-01-18T11:01:23.671Z,97355.84
2023-01-18T11:06:26.391Z,97363.06
2023-01-18T11:11:50.061Z,97362.88
2023-01-18T11:17:11.512Z,97365.09
2023-01-18T11:22:16.982Z,97372.41
2023-01-18T11:27:24.833Z,97375.69
2023-01-18T11:32:29.890Z,97375.22
2023-01-18T11:37:35.374Z,97387.66
2023-01-18T11:42:40.489Z,97381.81
2023-01-18T11:47:51.137Z,97381.44
2023-01-18T11:52:55.251Z,97391.75
2023-01-18T11:57:59.044Z,97397.00
2023-01-18T12:03:29.365Z,97408.09
2023-01-18T12:08:38.358Z,97419.94
2023-01-18T12:13:47.207Z,97425.59
2023-01-18T12:18:57.713Z,97416.25
2023-01-18T12:24:15.862Z,97424.31
2023-01-18T12:29:51.268Z,97432.03
2023-01-18T12:35:15.563Z,97447.78
2023-01-18T12:40:40.444Z,97461.03
2023-01-18T12:45:57.277Z,97471.72
2023-01-18T12:51:01.006Z,97480.31
2023-01-18T12:56:13.077Z,97487.41
2023-01-18T13:01:21.806Z,97493.72
2023-01-18T13:06:25.992Z,97502.66
2023-01-18T13:11:33.139Z,97503.00
2023-01-18T13:17:03.985Z,97518.41
2023-01-18T13:22:35.210Z,97523.53
2023-01-18T13:27:37.878Z,97529.78
2023-01-18T13:32:42.390Z,97531.91
2023-01-18T13:37:56.417Z,97548.78
2023-01-18T13:42:58.588Z,97554.41
2023-01-18T13:48:54.408Z,97565.75
2023-01-18T13:53:56.164Z,97572.94
2023-01-18T13:59:12.743Z,97582.06
2023-01-18T14:04:17.323Z,97587.56
2023-01-18T14:09:42.196Z,97598.81
2023-01-18T14:14:58.950Z,97606.28
2023-01-18T14:20:28.603Z,97605.13
2023-01-18T14:25:51.766Z,97623.84
2023-01-18T14:30:58.610Z,97626.50
2023-01-18T14:36:01.996Z,97640.88
2023-01-18T14:41:07.525Z,97658.78
2023-01-18T14:46:21.699Z,97672.16
2023-01-18T14:51:26.638Z,97675.13
2023-01-18T14:56:31.970Z,97687.72
2023-01-18T15:01:37.737Z,97700.44
2023-01-18T15:06:42.218Z,97712.34
2023-01-18T15:11:44.797Z,97715.63
2023-01-18T15:16:48.854Z,97720.78
2023-01-18T15:21:51.054Z,97731.53
2023-01-18T15:27:01.222Z,97745.91
2023-01-18T15:32:19.337Z,97754.69
2023-01-18T15:37:37.655Z,97769.13
2023-01-18T15:42:44.789Z,97782.19
2023-01-18T15:47:53.732Z,97790.63
2023-01-18T15:53:06.762Z,97799.56
2023-01-18T15:58:13.961Z,97811.16
2023-01-18T16:03:21.840Z,97819.13
2023-01-18T16:08:24.123Z,97822.56
2023-01-18T16:13:40.092Z,97833.50
2023-01-18T16:18:48.073Z,97844.09
2023-01-18T16:23:52.426Z,97855.53
2023-01-18T16:28:54.133Z,97861.78
2023-01-18T16:33:55.700Z,97867.03
2023-01-18T16:38:57.310Z,97873.53
2023-01-18T16:44:03.660Z,97885.34
2023-01-18T16:49:11.358Z,97890.00
2023-01-18T16:54:13.014Z,97905.13
2023-01-18T16:59:17.593Z,97907.41
2023-01-18T17:04:19.193Z,97916.50
2023-01-18T17:09:27.128Z,97937.84
2023-01-18T17:14:29.550Z,97945.38
2023-01-18T17:19:31.165Z,97950.16
2023-01-18T17:24:33.056Z,97962.19
2023-01-18T17:29:34.700Z,97968.22
2023-01-18T17:34:36.305Z,97975.84
2023-01-18T17:39:49.732Z,97979.50
2023-01-18T17:45:09.872Z,97994.19
2023-01-18T17:50:19.058Z,98000.34
2023-01-18T17:55:24.464Z,98006.41
2023-01-18T18:00:29.217Z,98013.34
2023-01-18T18:05:30.897Z,98024.72
2023-01-18T18:10:32.522Z,98030.22
2023-01-18T18:15:34.188Z,98038.25
2023-01-18T18:20:38.188Z,98053.78
2023-01-18T18:25:40.373Z,98059.91
2023-01-18T18:30:41.955Z,98068.25
2023-01-18T18:35:43.542Z,98083.59
2023-01-18T18:40:45.796Z,98085.75
2023-01-18T18:45:47.741Z,98107.88
2023-01-18T18:50:52.273Z,98109.03
2023-01-18T18:56:00.287Z,98129.50
2023-01-18T19:01:02.285Z,98138.91
2023-01-18T19:06:04.002Z,98147.06
2023-01-18T19:11:05.681Z,98157.66
2023-01-18T19:16:07.781Z,98163.56
2023-01-18T19:21:09.421Z,98184.91
2023-01-18T19:26:11.043Z,98197.72
2023-01-18T19:31:13.126Z,98208.78
2023-01-18T19:36:15.511Z,98216.38
2023-01-18T19:41:17.561Z,98226.25
2023-01-18T19:46:20.253Z,98230.63
2023-01-18T19:51:23.050Z,98245.34
2023-01-18T19:56:25.747Z,98253.28
2023-01-18T20:01:36.402Z,98271.31
2023-01-18T20:06:39.507Z,98271.16
2023-01-18T20:11:41.220Z,98277.63
2023-01-18T20:16:44.907Z,98286.44
2023-01-18T20:21:47.533Z,98287.28
2023-01-18T20:26:49.141Z,98300.94
2023-01-18T20:31:51.411Z,98311.38
2023-01-18T20:36:53.089Z,98302.16
2023-01-18T20:41:54.700Z,98313.53
2023-01-18T20:46:57.425Z,98316.06
2023-01-18T20:51:59.047Z,98322.34
2023-01-18T20:57:00.637Z,98331.09
2023-01-18T21:02:03.343Z,98337.16
2023-01-18T21:07:05.230Z,98332.84
2023-01-18T21:12:07.107Z,98348.47
2023-01-18T21:17:08.887Z,98345.78
2023-01-18T21:22:10.485Z,98350.56
2023-01-18T21:27:12.694Z,98352.22
2023-01-18T21:32:14.752Z,98347.56
2023-01-18T21:37:16.365Z,98344.97
2023-01-18T21:42:36.726Z,98344.84
2023-01-18T21:47:38.314Z,98355.09
2023-01-18T21:52:58.145Z,98360.56
2023-01-18T21:58:18.304Z,98363.06
2023-01-18T22:03:20.724Z,98355.56
2023-01-18T22:08:22.319Z,98372.94
2023-01-18T22:13:24.032Z,98388.91
2023-01-18T22:18:25.627Z,98397.22
2023-01-18T22:23:27.280Z,98390.53
2023-01-18T22:28:28.896Z,98389.56
2023-01-18T22:33:30.485Z,98402.06
2023-01-18T22:38:32.438Z,98401.53
2023-01-18T22:43:35.902Z,98395.19
2023-01-18T22:48:38.180Z,98407.22
2023-01-18T22:53:39.790Z,98402.81
2023-01-18T22:58:41.675Z,98411.06
2023-01-18T23:03:44.019Z,98420.50
2023-01-18T23:08:47.286Z,98427.56
2023-01-18T23:14:10.967Z,98436.28
2023-01-18T23:19:12.556Z,98450.88
2023-01-18T23:24:14.141Z,98456.41
2023-01-18T23:29:16.241Z,98450.16
2023-01-18T23:34:18.167Z,98460.63
2023-01-18T23:39:38.382Z,98467.50
2023-01-18T23:44:58.571Z,98476.06
2023-01-18T23:50:18.727Z,98486.88
2023-01-18T23:55:21.524Z,98497.41
